createdAt,value
2023-03-06T00:00:25.290Z,99557.38
2023-03-06T00:02:52.610Z,99559.19
2023-03-06T00:05:19.809Z,99565.59
2023-03-06T00:07:46.658Z,99560.38
2023-03-06T00:10:18.733Z,99554.31
2023-03-06T00:12:45.662Z,99556.34
2023-03-06T00:15:14.046Z,99560.56
2023-03-06T00:17:41.159Z,99565.22
2023-03-06T00:20:09.628Z,99565.88
2023-03-06T00:22:36.508Z,99564.03
2023-03-06T00:25:03.328Z,99566.03
2023-03-06T00:27:31.727Z,99566.59
2023-03-06T00:30:01.297Z,99560.97
2023-03-06T00:32:29.010Z,99563.03
2023-03-06T00:34:56.893Z,99558.06
2023-03-06T00:37:24.697Z,99559.53
2023-03-06T00:39:52.374Z,99564.03
2023-03-06T00:42:20.201Z,99554.19
2023-03-06T00:44:47.335Z,99551.63
2023-03-06T00:47:17.391Z,99547.03
2023-03-06T00:49:45.227Z,99549.53
2023-03-06T00:52:13.364Z,99536.53
2023-03-06T00:54:40.715Z,99538.06
2023-03-06T00:57:08.016Z,99536.59
2023-03-06T00:59:35.085Z,99546.88
2023-03-06T01:02:02.239Z,99529.25
2023-03-06T01:04:29.301Z,99531.09
2023-03-06T01:06:56.591Z,99532.13
2023-03-06T01:09:24.626Z,99524.16
2023-03-06T01:11:53.925Z,99513.53
2023-03-06T01:14:20.916Z,99511.84
2023-03-06T01:16:48.208Z,99512.31
2023-03-06T01:19:17.983Z,99510.22
2023-03-06T01:21:45.652Z,99513.53
2023-03-06T01:24:12.444Z,99504.91
2023-03-06T01:26:39.332Z,99501.22
2023-03-06T01:29:06.527Z,99509.56
2023-03-06T01:31:33.745Z,99507.44
2023-03-06T01:34:00.694Z,99502.88
2023-03-06T01:36:27.555Z,99492.78
2023-03-06T01:38:54.352Z,99495.50
2023-03-06T01:41:21.681Z,99495.53
2023-03-06T01:43:49.249Z,99492.53
2023-03-06T01:46:41.996Z,99492.28
2023-03-06T01:49:16.998Z,99492.19
2023-03-06T01:51:52.560Z,99494.56
2023-03-06T01:54:26.919Z,99495.28
2023-03-06T01:56:59.475Z,99496.16
2023-03-06T01:59:27.572Z,99494.59
2023-03-06T02:01:55.446Z,99497.25
2023-03-06T02:04:22.417Z,99492.84
2023-03-06T02:06:50.937Z,99487.38
2023-03-06T02:09:17.840Z,99492.53
2023-03-06T02:11:46.444Z,99482.59
2023-03-06T02:14:15.821Z,99489.09
2023-03-06T02:16:44.184Z,99490.13
2023-03-06T02:19:47.994Z,99485.16
2023-03-06T02:22:14.801Z,99480.41
2023-03-06T02:24:53.447Z,99482.91
2023-03-06T02:27:20.891Z,99475.59
2023-03-06T02:29:49.398Z,99471.88
2023-03-06T02:32:16.488Z,99476.00
2023-03-06T02:34:53.633Z,99471.88
2023-03-06T02:37:21.887Z,99465.09
2023-03-06T02:39:55.333Z,99458.91
2023-03-06T02:42:25.386Z,99453.03
2023-03-06T02:44:55.344Z,99447.56
2023-03-06T02:47:22.308Z,99445.25
2023-03-06T02:49:49.477Z,99451.41
2023-03-06T02:52:18.149Z,99451.03
2023-03-06T02:54:45.085Z,99442.91
2023-03-06T02:57:12.234Z,99445.72
2023-03-06T02:59:39.287Z,99438.28
2023-03-06T03:02:07.666Z,99439.97
2023-03-06T03:04:34.995Z,99441.59
2023-03-06T03:07:02.891Z,99450.16
2023-03-06T03:09:36.888Z,99445.50
2023-03-06T03:12:07.884Z,99441.22
2023-03-06T03:14:35.431Z,99436.56
2023-03-06T03:17:03.158Z,99438.88
2023-03-06T03:19:30.159Z,99445.59
2023-03-06T03:21:57.106Z,99440.34
2023-03-06T03:24:24.722Z,99440.28
2023-03-06T03:26:52.068Z,99440.94
2023-03-06T03:29:20.716Z,99440.75
2023-03-06T03:31:48.703Z,99419.69
2023-03-06T03:34:16.278Z,99431.78
2023-03-06T03:36:43.501Z,99431.22
2023-03-06T03:39:12.026Z,99429.03
2023-03-06T03:41:39.291Z,99431.41
2023-03-06T03:44:08.622Z,99429.56
2023-03-06T03:46:35.663Z,99431.03
2023-03-06T03:49:04.562Z,99427.84
2023-03-06T03:51:32.228Z,99415.75
2023-03-06T03:53:59.843Z,99417.38
2023-03-06T03:56:29.909Z,99422.41
2023-03-06T03:59:09.116Z,99427.19
2023-03-06T04:01:42.718Z,99416.94
2023-03-06T04:04:09.656Z,99413.47
2023-03-06T04:06:36.988Z,99410.16
2023-03-06T04:09:04.981Z,99417.00
2023-03-06T04:11:33.492Z,99410.69
2023-03-06T04:14:00.892Z,99407.13
2023-03-06T04:16:27.769Z,99412.44
2023-03-06T04:18:55.520Z,99403.38
2023-03-06T04:21:22.593Z,99403.56
2023-03-06T04:23:49.388Z,99394.28
2023-03-06T04:26:16.272Z,99393.47
2023-03-06T04:28:43.345Z,99388.97
2023-03-06T04:31:12.986Z,99395.47
2023-03-06T04:33:40.197Z,99391.19
2023-03-06T04:36:07.858Z,99392.00
2023-03-06T04:38:34.737Z,99395.31
2023-03-06T04:41:04.218Z,99384.78
2023-03-06T04:43:31.285Z,99385.13
2023-03-06T04:45:58.544Z,99392.09
2023-03-06T04:48:25.469Z,99393.75
2023-03-06T04:50:52.352Z,99384.50
2023-03-06T04:53:21.423Z,99382.66
2023-03-06T04:55:48.237Z,99389.34
2023-03-06T04:58:15.968Z,99384.78
2023-03-06T05:00:42.805Z,99375.41
2023-03-06T05:03:09.870Z,99374.03
2023-03-06T05:05:36.670Z,99372.75
2023-03-06T05:08:03.696Z,99371.22
2023-03-06T05:10:30.540Z,99370.47
2023-03-06T05:12:57.437Z,99372.75
2023-03-06T05:15:24.307Z,99370.84
2023-03-06T05:17:52.346Z,99371.56
2023-03-06T05:20:19.168Z,99369.75
2023-03-06T05:22:45.970Z,99369.56
2023-03-06T05:25:13.168Z,99372.41
2023-03-06T05:27:42.098Z,99373.59
2023-03-06T05:30:12.129Z,99364.50
2023-03-06T05:32:39.149Z,99365.69
2023-03-06T05:35:06.903Z,99361.97
2023-03-06T05:37:34.178Z,99363.88
2023-03-06T05:40:01.201Z,99356.53
2023-03-06T05:42:30.978Z,99350.41
2023-03-06T05:44:57.962Z,99353.53
2023-03-06T05:47:24.782Z,99346.28
2023-03-06T05:49:51.592Z,99347.31
2023-03-06T05:52:18.428Z,99338.03
2023-03-06T05:54:50.477Z,99345.34
2023-03-06T05:57:20.030Z,99346.69
2023-03-06T05:59:47.247Z,99340.78
2023-03-06T06:02:14.113Z,99351.03
2023-03-06T06:04:41.022Z,99347.34
2023-03-06T06:07:07.937Z,99349.56
2023-03-06T06:09:34.806Z,99345.25
2023-03-06T06:12:03.794Z,99344.56
2023-03-06T06:14:34.500Z,99350.47
2023-03-06T06:17:01.582Z,99347.88
2023-03-06T06:19:30.056Z,99350.47
2023-03-06T06:21:57.816Z,99357.03
2023-03-06T06:24:26.456Z,99351.19
2023-03-06T06:26:55.377Z,99350.47
2023-03-06T06:29:23.561Z,99359.69
2023-03-06T06:31:51.514Z,99354.84
2023-03-06T06:34:19.194Z,99352.63
2023-03-06T06:36:46.469Z,99356.50
2023-03-06T06:39:18.132Z,99365.50
2023-03-06T06:41:59.803Z,99360.34
2023-03-06T06:44:32.700Z,99365.50
2023-03-06T06:47:21.773Z,99370.53
2023-03-06T06:49:51.127Z,99371.06
2023-03-06T06:52:19.002Z,99370.47
2023-03-06T06:54:46.138Z,99360.97
2023-03-06T06:57:13.384Z,99364.09
2023-03-06T06:59:40.381Z,99350.47
2023-03-06T07:02:07.419Z,99361.53
2023-03-06T07:04:34.410Z,99351.78
2023-03-06T07:07:01.592Z,99353.34
2023-03-06T07:09:30.957Z,99354.88
2023-03-06T07:11:58.114Z,99358.44
2023-03-06T07:14:25.157Z,99356.84
2023-03-06T07:16:52.119Z,99360.34
2023-03-06T07:19:19.124Z,99355.91
2023-03-06T07:21:46.042Z,99364.47
2023-03-06T07:24:12.863Z,99356.47
2023-03-06T07:26:39.842Z,99362.25
2023-03-06T07:29:06.684Z,99373.22
2023-03-06T07:31:33.613Z,99380.69
2023-03-06T07:34:01.872Z,99379.47
2023-03-06T07:36:29.982Z,99371.06
2023-03-06T07:38:56.722Z,99349.63
2023-03-06T07:41:23.666Z,99358.31
2023-03-06T07:43:50.547Z,99361.47
2023-03-06T07:46:17.893Z,99354.81
2023-03-06T07:48:44.870Z,99356.84
2023-03-06T07:51:20.506Z,99361.84
2023-03-06T07:53:48.666Z,99360.09
2023-03-06T07:56:15.640Z,99365.84
2023-03-06T07:58:44.926Z,99356.19
2023-03-06T08:01:14.494Z,99350.47
2023-03-06T08:03:41.447Z,99358.50
2023-03-06T08:06:10.063Z,99354.59
2023-03-06T08:08:39.458Z,99363.19
2023-03-06T08:11:07.754Z,99351.47
2023-03-06T08:13:35.307Z,99351.19
2023-03-06T08:16:02.799Z,99349.47
2023-03-06T08:18:29.880Z,99357.94
2023-03-06T08:21:08.763Z,99359.69
2023-03-06T08:23:36.656Z,99360.63
2023-03-06T08:26:13.054Z,99352.72
2023-03-06T08:28:40.344Z,99349.50
2023-03-06T08:31:11.461Z,99351.88
2023-03-06T08:33:39.391Z,99347.69
2023-03-06T08:36:06.704Z,99355.63
2023-03-06T08:38:33.603Z,99350.78
2023-03-06T08:41:00.474Z,99338.16
2023-03-06T08:43:27.423Z,99338.03
2023-03-06T08:46:00.932Z,99330.47
2023-03-06T08:48:28.304Z,99337.63
2023-03-06T08:50:55.369Z,99332.00
2023-03-06T08:53:36.664Z,99326.66
2023-03-06T08:56:16.056Z,99333.75
2023-03-06T08:58:42.956Z,99336.38
2023-03-06T09:01:18.968Z,99340.06
2023-03-06T09:03:45.950Z,99336.81
2023-03-06T09:06:13.448Z,99336.63
2023-03-06T09:08:43.319Z,99334.50
2023-03-06T09:11:14.787Z,99330.44
2023-03-06T09:13:43.302Z,99329.31
2023-03-06T09:16:11.279Z,99327.25
2023-03-06T09:18:38.203Z,99328.72
2023-03-06T09:21:06.268Z,99330.94
2023-03-06T09:23:34.043Z,99323.34
2023-03-06T09:26:02.204Z,99326.28
2023-03-06T09:28:29.079Z,99325.47
2023-03-06T09:30:56.153Z,99317.44
2023-03-06T09:33:23.505Z,99311.88
2023-03-06T09:35:53.751Z,99319.88
2023-03-06T09:38:23.045Z,99318.94
2023-03-06T09:41:04.575Z,99324.88
2023-03-06T09:43:38.251Z,99319.47
2023-03-06T09:46:31.324Z,99319.47
2023-03-06T09:49:15.304Z,99312.22
2023-03-06T09:52:00.669Z,99301.47
2023-03-06T09:54:44.572Z,99299.59
2023-03-06T09:57:25.397Z,99297.31
2023-03-06T09:59:55.979Z,99296.41
2023-03-06T10:02:38.742Z,99296.13
2023-03-06T10:05:10.770Z,99298.94
2023-03-06T10:07:45.386Z,99298.03
2023-03-06T10:10:22.487Z,99291.66
2023-03-06T10:13:04.265Z,99285.84
2023-03-06T10:15:34.687Z,99278.97
2023-03-06T10:18:03.346Z,99280.41
2023-03-06T10:20:53.662Z,99273.56
2023-03-06T10:24:05.625Z,99271.28
2023-03-06T10:26:43.609Z,99271.66
2023-03-06T10:29:14.140Z,99276.03
2023-03-06T10:31:45.330Z,99268.50
2023-03-06T10:34:23.059Z,99271.53
2023-03-06T10:36:50.704Z,99264.38
2023-03-06T10:39:20.652Z,99252.22
2023-03-06T10:41:48.924Z,99245.41
2023-03-06T10:44:16.122Z,99240.69
2023-03-06T10:46:46.035Z,99236.88
2023-03-06T10:49:21.762Z,99248.75
2023-03-06T10:52:07.255Z,99245.28
2023-03-06T10:54:40.343Z,99239.59
2023-03-06T10:57:24.850Z,99231.66
2023-03-06T10:59:54.966Z,99234.75
2023-03-06T11:02:24.182Z,99240.69
2023-03-06T11:04:55.605Z,99222.03
2023-03-06T11:07:26.003Z,99221.28
2023-03-06T11:09:58.685Z,99214.13
2023-03-06T11:12:34.539Z,99215.31
2023-03-06T11:15:10.270Z,99203.66
2023-03-06T11:18:04.832Z,99200.81
2023-03-06T11:20:51.466Z,99200.06
2023-03-06T11:23:23.102Z,99181.09
2023-03-06T11:26:18.008Z,99172.22
2023-03-06T11:29:16.554Z,99166.53
2023-03-06T11:31:48.297Z,99170.13
2023-03-06T11:34:23.426Z,99173.44
2023-03-06T11:36:55.642Z,99164.94
2023-03-06T11:39:37.292Z,99157.25
2023-03-06T11:42:21.963Z,99156.00
2023-03-06T11:45:17.444Z,99156.19
2023-03-06T11:47:53.492Z,99150.81
2023-03-06T11:50:29.153Z,99143.59
2023-03-06T11:53:05.505Z,99139.44
2023-03-06T11:55:51.141Z,99131.34
2023-03-06T11:58:29.748Z,99124.28
2023-03-06T12:01:06.493Z,99119.00
2023-03-06T12:03:52.194Z,99105.22
2023-03-06T12:06:18.927Z,99107.28
2023-03-06T12:08:48.608Z,99112.91
2023-03-06T12:11:23.250Z,99110.94
2023-03-06T12:14:14.254Z,99099.16
2023-03-06T12:16:48.936Z,99095.38
2023-03-06T12:20:10.000Z,99109.25
2023-03-06T12:22:57.564Z,99099.00
2023-03-06T12:25:26.803Z,99103.88
2023-03-06T12:28:32.226Z,99092.19
2023-03-06T12:31:04.898Z,99084.91
2023-03-06T12:33:43.362Z,99087.03
2023-03-06T12:39:45.725Z,99083.59
2023-03-06T12:42:23.712Z,99076.34
2023-03-06T12:44:56.397Z,99076.34
2023-03-06T12:47:28.058Z,99068.03
2023-03-06T12:50:03.297Z,99066.25
2023-03-06T12:52:31.909Z,99074.06
2023-03-06T12:55:01.370Z,99066.28
2023-03-06T12:57:29.851Z,99065.53
2023-03-06T12:59:56.664Z,99073.34
2023-03-06T13:02:32.634Z,99068.34
2023-03-06T13:05:20.926Z,99065.97
2023-03-06T13:07:58.678Z,99066.63
2023-03-06T13:10:33.868Z,99066.09
2023-03-06T13:13:01.790Z,99060.78
2023-03-06T13:15:45.956Z,99060.78
2023-03-06T13:18:22.075Z,99066.28
2023-03-06T13:20:51.012Z,99054.91
2023-03-06T13:23:30.064Z,99059.50
2023-03-06T13:25:59.903Z,99054.63
2023-03-06T13:28:46.317Z,99050.94
2023-03-06T13:31:33.509Z,99052.47
2023-03-06T13:34:02.609Z,99047.22
2023-03-06T13:36:34.486Z,99050.28
2023-03-06T13:39:04.982Z,99057.56
2023-03-06T13:41:31.795Z,99042.84
2023-03-06T13:44:00.944Z,99036.81
2023-03-06T13:46:31.319Z,99037.25
2023-03-06T13:49:13.066Z,99031.03
2023-03-06T13:51:43.682Z,99024.09
2023-03-06T13:54:16.923Z,99023.28
2023-03-06T13:57:02.643Z,99024.94
2023-03-06T14:00:08.245Z,99028.59
2023-03-06T14:02:55.382Z,99015.53
2023-03-06T14:05:23.153Z,99020.38
2023-03-06T14:08:23.966Z,99026.50
2023-03-06T14:11:06.109Z,99032.59
2023-03-06T14:13:47.833Z,99019.59
2023-03-06T14:16:21.081Z,99021.97
2023-03-06T14:18:50.699Z,99013.88
2023-03-06T14:21:33.594Z,99016.34
2023-03-06T14:24:03.115Z,99006.88
2023-03-06T14:26:40.447Z,99024.88
2023-03-06T14:29:21.250Z,99015.81
2023-03-06T14:31:53.911Z,99015.38
2023-03-06T14:34:37.337Z,99013.81
2023-03-06T14:37:07.836Z,99000.47
2023-03-06T14:39:36.719Z,99005.28
2023-03-06T14:42:18.462Z,99005.16
2023-03-06T14:44:49.933Z,99004.41
2023-03-06T14:47:33.521Z,98987.81
2023-03-06T14:50:25.321Z,98996.03
2023-03-06T14:53:04.260Z,98995.78
2023-03-06T14:55:35.108Z,98995.09
2023-03-06T14:58:17.493Z,98987.53
2023-03-06T15:00:49.683Z,98990.78
2023-03-06T15:03:24.549Z,98995.38
2023-03-06T15:05:52.034Z,98992.69
2023-03-06T15:08:27.195Z,98986.72
2023-03-06T15:10:57.012Z,98984.84
2023-03-06T15:13:26.823Z,98978.81
2023-03-06T15:16:04.714Z,98975.06
2023-03-06T15:18:35.587Z,98980.69
2023-03-06T15:21:36.332Z,98978.53
2023-03-06T15:24:36.623Z,98980.03
2023-03-06T15:27:06.010Z,98980.44
2023-03-06T15:29:33.871Z,98982.16
2023-03-06T15:32:33.682Z,98987.38
2023-03-06T15:35:25.684Z,98991.19
2023-03-06T15:37:52.922Z,98988.44
2023-03-06T15:40:23.220Z,98987.94
2023-03-06T15:42:50.250Z,98983.84
2023-03-06T15:45:25.941Z,98982.66
2023-03-06T15:47:54.605Z,98982.44
2023-03-06T15:50:24.969Z,98974.66
2023-03-06T15:52:52.197Z,98977.97
2023-03-06T15:55:22.044Z,98979.66
2023-03-06T15:57:55.243Z,98975.53
2023-03-06T16:00:34.254Z,98968.47
2023-03-06T16:03:03.148Z,98987.25
2023-03-06T16:05:30.745Z,98987.25
2023-03-06T16:07:57.613Z,98983.63
2023-03-06T16:10:27.435Z,98981.28
2023-03-06T16:12:57.066Z,98983.97
2023-03-06T16:15:29.823Z,98986.72
2023-03-06T16:17:57.734Z,98985.41
2023-03-06T16:20:27.461Z,98984.03
2023-03-06T16:22:55.039Z,98988.84
2023-03-06T16:25:23.650Z,98986.75
2023-03-06T16:27:58.156Z,98983.88
2023-03-06T16:30:35.700Z,98994.78
2023-03-06T16:33:03.712Z,98993.50
2023-03-06T16:35:30.985Z,98996.81
2023-03-06T16:37:58.851Z,99000.44
2023-03-06T16:40:25.632Z,99004.97
2023-03-06T16:42:55.022Z,99000.66
2023-03-06T16:45:23.310Z,98996.81
2023-03-06T16:47:50.759Z,98998.84
2023-03-06T16:50:20.185Z,99005.25
2023-03-06T16:52:47.009Z,99009.31
2023-03-06T16:55:16.104Z,99014.56
2023-03-06T16:57:43.001Z,99011.09
2023-03-06T17:00:11.526Z,99018.34
2023-03-06T17:02:38.964Z,99013.88
2023-03-06T17:05:07.379Z,99012.81
2023-03-06T17:07:35.825Z,99030.34
2023-03-06T17:10:07.632Z,99019.03
2023-03-06T17:12:34.632Z,99028.00
2023-03-06T17:15:02.056Z,99032.13
2023-03-06T17:17:30.543Z,99026.97
2023-03-06T17:19:58.159Z,99026.63
2023-03-06T17:22:25.365Z,99031.63
2023-03-06T17:24:52.383Z,99030.13
2023-03-06T17:27:21.116Z,99037.25
2023-03-06T17:29:48.104Z,99037.59
2023-03-06T17:32:14.996Z,99033.94
2023-03-06T17:34:42.031Z,99036.03
2023-03-06T17:37:08.949Z,99032.88
2023-03-06T17:39:38.154Z,99034.41
2023-03-06T17:42:06.690Z,99035.44
2023-03-06T17:44:34.436Z,99027.66
2023-03-06T17:47:02.920Z,99035.06
2023-03-06T17:49:29.962Z,99037.75
2023-03-06T17:51:59.847Z,99038.75
2023-03-06T17:54:27.420Z,99044.00
2023-03-06T17:56:54.293Z,99037.34
2023-03-06T17:59:21.082Z,99038.38
2023-03-06T18:01:48.080Z,99027.63
2023-03-06T18:04:15.048Z,99033.41
2023-03-06T18:06:42.022Z,99036.81
2023-03-06T18:09:10.274Z,99039.94
2023-03-06T18:11:37.520Z,99047.84
2023-03-06T18:14:05.624Z,99043.25
2023-03-06T18:16:32.834Z,99038.22
2023-03-06T18:18:59.705Z,99041.59
2023-03-06T18:21:26.799Z,99039.84
2023-03-06T18:23:53.897Z,99052.63
2023-03-06T18:26:23.847Z,99055.25
2023-03-06T18:28:58.422Z,99059.19
2023-03-06T18:31:28.564Z,99055.84
2023-03-06T18:33:56.480Z,99057.91
2023-03-06T18:36:25.354Z,99047.78
2023-03-06T18:38:52.455Z,99058.00
2023-03-06T18:41:20.886Z,99055.78
2023-03-06T18:43:55.869Z,99053.78
2023-03-06T18:46:23.588Z,99058.34
2023-03-06T18:48:50.523Z,99057.66
2023-03-06T18:51:19.474Z,99052.34
2023-03-06T18:53:46.619Z,99058.38
2023-03-06T18:56:18.851Z,99057.78
2023-03-06T18:58:46.119Z,99057.56
2023-03-06T19:01:13.117Z,99066.91
2023-03-06T19:03:40.556Z,99057.31
2023-03-06T19:06:12.838Z,99058.81
2023-03-06T19:08:40.764Z,99064.50
2023-03-06T19:11:11.076Z,99060.28
2023-03-06T19:13:38.391Z,99057.25
2023-03-06T19:16:05.820Z,99056.78
2023-03-06T19:18:32.766Z,99059.81
2023-03-06T19:21:10.970Z,99056.13
2023-03-06T19:23:38.161Z,99060.41
2023-03-06T19:26:06.069Z,99055.16
2023-03-06T19:28:33.887Z,99061.16
2023-03-06T19:31:07.013Z,99063.75
2023-03-06T19:33:37.490Z,99063.47
2023-03-06T19:36:10.830Z,99058.66
2023-03-06T19:38:38.092Z,99057.13
2023-03-06T19:41:05.790Z,99058.41
2023-03-06T19:43:32.693Z,99066.44
2023-03-06T19:46:00.826Z,99064.03
2023-03-06T19:48:27.688Z,99062.09
2023-03-06T19:50:54.468Z,99063.69
2023-03-06T19:53:22.125Z,99069.19
2023-03-06T19:55:49.143Z,99068.94
2023-03-06T19:58:15.968Z,99071.88
2023-03-06T20:00:43.210Z,99074.75
2023-03-06T20:03:10.117Z,99079.66
2023-03-06T20:05:37.003Z,99076.19
2023-03-06T20:08:03.986Z,99084.66
2023-03-06T20:10:30.751Z,99079.97
2023-03-06T20:12:57.584Z,99077.00
2023-03-06T20:15:24.548Z,99086.00
2023-03-06T20:17:51.374Z,99084.09
2023-03-06T20:20:18.276Z,99082.44
2023-03-06T20:22:45.086Z,99086.38
2023-03-06T20:25:11.926Z,99087.38
2023-03-06T20:27:39.359Z,99088.28
2023-03-06T20:30:08.128Z,99080.97
2023-03-06T20:32:35.094Z,99085.41
2023-03-06T20:35:02.059Z,99083.06
2023-03-06T20:37:28.907Z,99086.44
2023-03-06T20:39:56.017Z,99092.81
2023-03-06T20:42:22.857Z,99088.31
2023-03-06T20:44:49.695Z,99083.19
2023-03-06T20:47:16.581Z,99087.50
2023-03-06T20:49:43.408Z,99078.91
2023-03-06T20:52:10.276Z,99078.25
2023-03-06T20:54:37.493Z,99074.75
2023-03-06T20:57:04.407Z,99069.25
2023-03-06T20:59:31.335Z,99065.47
2023-03-06T21:01:58.235Z,99066.66
2023-03-06T21:04:25.382Z,99065.25
2023-03-06T21:06:53.600Z,99066.06
2023-03-06T21:09:20.508Z,99073.88
2023-03-06T21:11:48.010Z,99067.19
2023-03-06T21:14:15.575Z,99074.53
2023-03-06T21:16:43.015Z,99074.31
2023-03-06T21:19:10.302Z,99075.03
2023-03-06T21:21:37.165Z,99073.91
2023-03-06T21:24:04.097Z,99076.63
2023-03-06T21:26:33.989Z,99084.09
2023-03-06T21:29:01.895Z,99089.13
2023-03-06T21:31:29.259Z,99083.00
2023-03-06T21:33:56.624Z,99085.59
2023-03-06T21:36:23.602Z,99083.84
2023-03-06T21:38:52.333Z,99091.41
2023-03-06T21:41:26.860Z,99096.38
2023-03-06T21:43:57.259Z,99087.84
2023-03-06T21:46:24.867Z,99081.03
2023-03-06T21:48:51.910Z,99079.28
2023-03-06T21:51:20.927Z,99091.81
2023-03-06T21:53:48.648Z,99096.75
2023-03-06T21:56:17.627Z,99090.94
2023-03-06T21:58:45.018Z,99084.19
2023-03-06T22:01:15.716Z,99077.78
2023-03-06T22:03:42.808Z,99078.03
2023-03-06T22:06:11.770Z,99079.19
2023-03-06T22:08:39.340Z,99079.84
2023-03-06T22:11:08.446Z,99081.38
2023-03-06T22:13:36.146Z,99077.72
2023-03-06T22:16:03.681Z,99073.63
2023-03-06T22:18:30.721Z,99076.97
2023-03-06T22:21:00.638Z,99081.22
2023-03-06T22:23:27.452Z,99076.34
2023-03-06T22:25:54.256Z,99072.72
2023-03-06T22:28:21.088Z,99067.63
2023-03-06T22:30:48.046Z,99073.53
2023-03-06T22:33:14.926Z,99067.56
2023-03-06T22:35:41.751Z,99066.88
2023-03-06T22:38:08.735Z,99071.09
2023-03-06T22:40:35.682Z,99067.56
2023-03-06T22:43:02.598Z,99071.56
2023-03-06T22:45:29.466Z,99070.69
2023-03-06T22:48:05.566Z,99071.06
2023-03-06T22:50:34.056Z,99072.00
2023-03-06T22:53:01.421Z,99073.63
2023-03-06T22:55:28.397Z,99076.47
2023-03-06T22:57:55.793Z,99074.44
2023-03-06T23:00:23.405Z,99078.81
2023-03-06T23:02:50.284Z,99064.84
2023-03-06T23:05:17.196Z,99071.03
2023-03-06T23:07:47.203Z,99078.59
2023-03-06T23:10:13.980Z,99082.34
2023-03-06T23:12:59.841Z,99094.50
2023-03-06T23:15:45.039Z,99080.78
2023-03-06T23:18:30.916Z,99086.19
2023-03-06T23:21:19.026Z,99095.63
2023-03-06T23:24:05.632Z,99090.47
2023-03-06T23:26:34.240Z,99086.50
2023-03-06T23:29:01.714Z,99084.19
2023-03-06T23:31:30.659Z,99089.31
2023-03-06T23:33:59.285Z,99092.16
2023-03-06T23:36:26.317Z,99097.25
2023-03-06T23:38:53.594Z,99095.34
2023-03-06T23:41:21.345Z,99107.19
2023-03-06T23:43:48.726Z,99101.22
2023-03-06T23:46:16.285Z,99095.06
2023-03-06T23:48:43.867Z,99104.34
2023-03-06T23:51:20.129Z,99109.06
2023-03-06T23:53:48.025Z,99108.50
2023-03-06T23:56:15.517Z,99107.34
2023-03-06T23:58:42.639Z,99102.09
